Time;durP1;ratioP1;P1;durP2;ratioP2;P2;SDS_P1;SDS_P2;PMS_P1;PMS_P2;Temp;Humidity;BMP_temperature;BMP_pressure;BME280_temperature;BME280_humidity;BME280_pressure;Samples;Min_cycle;Max_cycle;Signal;HPM_P1;HPM_P2
2021/03/20 00:02:31;;;;;;;14.95;7.57;;;;;;;;;;5003592;28;20037;-88
2021/03/20 00:05:16;;;;;;;13.15;6.88;;;;;;;;;;5007798;28;20492;-84
2021/03/20 00:08:03;;;;;;;14.02;7.40;;;;;;;;;;5017718;28;20032;-86
2021/03/20 00:10:48;;;;;;;14.63;8.10;;;;;;;;;;5023275;28;20026;-86
2021/03/20 00:13:33;;;;;;;13.45;7.18;;;;;;;;;;5016607;28;20041;-84
2021/03/20 00:16:19;;;;;;;14.35;7.32;;;;;;;;;;5022189;28;20022;-84
2021/03/20 00:19:04;;;;;;;15.45;7.90;;;;;;;;;;5010649;28;20060;-84
2021/03/20 00:21:49;;;;;;;10.57;6.18;;;;;;;;;;5005883;28;20017;-84
2021/03/20 00:24:35;;;;;;;13.65;7.72;;;;;;;;;;5019586;28;20033;-84
2021/03/20 00:27:20;;;;;;;10.35;6.80;;;;;;;;;;4992544;28;20026;-83
2021/03/20 00:30:06;;;;;;;13.30;8.18;;;;;;;;;;4996756;28;20026;-83
2021/03/20 00:32:51;;;;;;;14.15;7.68;;;;;;;;;;5020287;28;20018;-84
2021/03/20 00:35:36;;;;;;;12.82;7.45;;;;;;;;;;5018856;28;20392;-84
2021/03/20 00:38:23;;;;;;;12.40;7.97;;;;;;;;;;5004163;28;20026;-83
2021/03/20 00:41:09;;;;;;;15.35;7.65;;;;;;;;;;5001055;28;20034;-83
2021/03/20 00:43:54;;;;;;;13.98;7.82;;;;;;;;;;5003011;28;20093;-84
2021/03/20 00:46:40;;;;;;;13.95;8.50;;;;;;;;;;5006519;28;20037;-87
2021/03/20 00:49:25;;;;;;;12.38;7.43;;;;;;;;;;5001275;28;20029;-83
2021/03/20 00:52:10;;;;;;;13.48;7.65;;;;;;;;;;5008067;28;20083;-83
2021/03/20 00:54:55;;;;;;;13.15;7.65;;;;;;;;;;4998418;28;20137;-84
2021/03/20 00:57:41;;;;;;;11.73;7.00;;;;;;;;;;5005511;28;20561;-82
2021/03/20 01:00:27;;;;;;;14.48;8.52;;;;;;;;;;4986544;28;20029;-82
2021/03/20 01:03:13;;;;;;;15.48;8.20;;;;;;;;;;5019729;28;20079;-83
2021/03/20 01:05:58;;;;;;;17.13;9.70;;;;;;;;;;5017921;28;20026;-83
2021/03/20 01:08:44;;;;;;;15.52;9.80;;;;;;;;;;5003305;28;20034;-85
2021/03/20 01:11:30;;;;;;;18.27;9.15;;;;;;;;;;5008639;28;20029;-85
2021/03/20 01:14:15;;;;;;;18.63;9.70;;;;;;;;;;4999011;28;20077;-83
2021/03/20 01:17:00;;;;;;;17.52;10.82;;;;;;;;;;5017645;28;20022;-85
2021/03/20 01:19:46;;;;;;;17.67;8.95;;;;;;;;;;5003729;28;20033;-82
2021/03/20 01:22:31;;;;;;;17.02;8.55;;;;;;;;;;4990124;28;20056;-84
2021/03/20 01:25:16;;;;;;;13.82;8.88;;;;;;;;;;5022218;28;20026;-84
2021/03/20 01:28:02;;;;;;;15.38;8.57;;;;;;;;;;5024751;28;20413;-84
2021/03/20 01:30:47;;;;;;;17.38;10.35;;;;;;;;;;5008066;28;20468;-82
2021/03/20 01:33:32;;;;;;;13.68;9.18;;;;;;;;;;5021531;28;20429;-85
2021/03/20 01:36:18;;;;;;;13.45;7.43;;;;;;;;;;5008063;28;20018;-86
2021/03/20 01:39:04;;;;;;;16.83;8.57;;;;;;;;;;4996682;28;20026;-85
2021/03/20 01:41:49;;;;;;;14.25;7.80;;;;;;;;;;5003047;28;20029;-85
2021/03/20 01:44:34;;;;;;;15.48;8.25;;;;;;;;;;5006008;28;20058;-85
2021/03/20 01:47:20;;;;;;;15.90;8.80;;;;;;;;;;5019538;28;20544;-85
2021/03/20 01:50:05;;;;;;;14.55;7.97;;;;;;;;;;5009608;28;20124;-85
2021/03/20 01:52:53;;;;;;;15.65;9.38;;;;;;;;;;5024535;28;20124;-85
2021/03/20 01:55:39;;;;;;;15.70;7.47;;;;;;;;;;5019831;28;22416;-85
2021/03/20 01:58:26;;;;;;;14.93;8.73;;;;;;;;;;5025671;28;20029;-86
2021/03/20 02:01:13;;;;;;;13.93;8.07;;;;;;;;;;5008959;28;20052;-86
2021/03/20 02:03:59;;;;;;;12.85;7.70;;;;;;;;;;5010612;28;20057;-87
2021/03/20 02:06:44;;;;;;;14.57;7.57;;;;;;;;;;5006284;28;20622;-85
2021/03/20 02:09:30;;;;;;;15.77;8.00;;;;;;;;;;5008910;28;20479;-85
2021/03/20 02:12:24;;;;;;;15.90;8.02;;;;;;;;;;5007406;28;20017;-86
2021/03/20 02:15:09;;;;;;;15.05;7.57;;;;;;;;;;4989508;28;20042;-85
2021/03/20 02:18:03;;;;;;;14.07;7.65;;;;;;;;;;4991981;28;20105;-84
2021/03/20 02:20:57;;;;;;;13.32;7.80;;;;;;;;;;5010594;28;20081;-84
2021/03/20 02:23:52;;;;;;;13.63;7.25;;;;;;;;;;4991525;28;20447;-84
2021/03/20 02:26:43;;;;;;;12.07;7.07;;;;;;;;;;4983706;28;20073;-85
2021/03/20 02:29:47;;;;;;;12.48;7.22;;;;;;;;;;5003773;28;20100;-84
2021/03/20 02:32:36;;;;;;;14.45;8.50;;;;;;;;;;4984541;28;20116;-84
2021/03/20 02:35:28;;;;;;;16.38;8.52;;;;;;;;;;4978935;28;20466;-85
2021/03/20 02:38:22;;;;;;;13.07;7.68;;;;;;;;;;4975920;28;20030;-84
2021/03/20 02:41:26;;;;;;;12.00;7.05;;;;;;;;;;4983315;28;20026;-85
2021/03/20 02:44:23;;;;;;;10.50;7.03;;;;;;;;;;4997576;28;20034;-85
2021/03/20 02:47:10;;;;;;;12.57;6.65;;;;;;;;;;4995964;28;20022;-85
2021/03/20 02:49:55;;;;;;;11.95;7.35;;;;;;;;;;4983031;28;20026;-85
2021/03/20 02:52:40;;;;;;;13.38;8.25;;;;;;;;;;4972878;28;20026;-85
2021/03/20 02:55:38;;;;;;;13.73;7.60;;;;;;;;;;4981322;28;20033;-84
2021/03/20 02:58:32;;;;;;;12.60;7.05;;;;;;;;;;4997512;28;20419;-86
2021/03/20 03:01:19;;;;;;;12.10;6.90;;;;;;;;;;4972262;28;20097;-84
2021/03/20 03:04:05;;;;;;;10.65;7.10;;;;;;;;;;4979341;28;20240;-85
2021/03/20 03:06:57;;;;;;;15.63;7.72;;;;;;;;;;4992400;28;20113;-84
2021/03/20 03:09:49;;;;;;;13.85;7.03;;;;;;;;;;4993406;28;20422;-85
2021/03/20 03:12:37;;;;;;;11.52;7.18;;;;;;;;;;4984037;28;20045;-85
2021/03/20 03:15:31;;;;;;;14.57;7.45;;;;;;;;;;4986409;28;20049;-84
2021/03/20 03:18:18;;;;;;;14.18;7.32;;;;;;;;;;5012238;28;20026;-85
2021/03/20 03:21:04;;;;;;;11.52;7.00;;;;;;;;;;5009678;28;20068;-85
2021/03/20 03:23:50;;;;;;;12.20;7.32;;;;;;;;;;4999958;28;20033;-84
2021/03/20 03:26:38;;;;;;;14.73;7.28;;;;;;;;;;5003254;28;20037;-84
2021/03/20 03:29:25;;;;;;;11.50;7.57;;;;;;;;;;5014630;28;20503;-84
2021/03/20 03:32:16;;;;;;;12.88;7.45;;;;;;;;;;5004437;28;20032;-84
2021/03/20 03:35:08;;;;;;;12.48;8.13;;;;;;;;;;5010168;28;20076;-86
2021/03/20 03:38:29;;;;;;;12.05;7.20;;;;;;;;;;5002684;28;20037;-88
2021/03/20 03:41:18;;;;;;;10.68;7.20;;;;;;;;;;4924472;29;20027;-85
2021/03/20 03:44:04;;;;;;;11.47;7.20;;;;;;;;;;4999054;28;20032;-84
2021/03/20 03:46:49;;;;;;;12.18;7.38;;;;;;;;;;4990721;28;20624;-85
2021/03/20 03:49:35;;;;;;;11.45;7.68;;;;;;;;;;5005543;28;20404;-84
2021/03/20 03:52:20;;;;;;;11.27;7.10;;;;;;;;;;5012382;28;20085;-83
2021/03/20 03:55:06;;;;;;;12.98;8.02;;;;;;;;;;4994739;28;20112;-84
2021/03/20 03:57:51;;;;;;;16.30;8.75;;;;;;;;;;5002944;28;20156;-83
2021/03/20 04:00:39;;;;;;;11.95;7.78;;;;;;;;;;4990709;28;20026;-84
2021/03/20 04:03:28;;;;;;;12.02;7.32;;;;;;;;;;5000243;28;20025;-84
2021/03/20 04:06:36;;;;;;;12.10;7.68;;;;;;;;;;5014351;28;20022;-84
2021/03/20 04:09:41;;;;;;;12.30;7.97;;;;;;;;;;5000910;28;20018;-85
2021/03/20 04:12:30;;;;;;;11.43;6.53;;;;;;;;;;4989530;28;20026;-85
2021/03/20 04:15:25;;;;;;;11.90;7.60;;;;;;;;;;5010155;28;20516;-85
2021/03/20 04:18:16;;;;;;;14.07;7.70;;;;;;;;;;5007860;28;20396;-85
2021/03/20 04:21:21;;;;;;;14.00;6.70;;;;;;;;;;4996684;28;20519;-85
2021/03/20 04:24:18;;;;;;;12.65;7.80;;;;;;;;;;4996782;28;20044;-85
2021/03/20 04:27:09;;;;;;;12.35;7.70;;;;;;;;;;5013904;28;20022;-86
2021/03/20 04:30:18;;;;;;;11.55;7.18;;;;;;;;;;5007923;28;20025;-88
2021/03/20 04:33:15;;;;;;;11.88;7.68;;;;;;;;;;5000667;28;20417;-88
2021/03/20 04:36:04;;;;;;;10.95;7.28;;;;;;;;;;5001003;28;20022;-88
2021/03/20 04:38:49;;;;;;;15.40;8.00;;;;;;;;;;5003113;28;20022;-86
2021/03/20 04:41:36;;;;;;;13.93;7.32;;;;;;;;;;5003848;28;20481;-86
2021/03/20 04:44:21;;;;;;;13.70;7.93;;;;;;;;;;4997835;28;20100;-87
2021/03/20 04:47:16;;;;;;;13.38;7.53;;;;;;;;;;4995518;28;20060;-87
2021/03/20 04:50:04;;;;;;;12.52;7.38;;;;;;;;;;5017551;28;20029;-86
2021/03/20 04:52:50;;;;;;;12.75;7.85;;;;;;;;;;5011172;28;20026;-86
2021/03/20 04:55:35;;;;;;;11.70;7.05;;;;;;;;;;4993124;28;20521;-86
2021/03/20 04:58:26;;;;;;;12.23;7.80;;;;;;;;;;4993835;28;20453;-85
2021/03/20 05:01:14;;;;;;;10.95;6.85;;;;;;;;;;5002161;28;20026;-86
2021/03/20 05:04:02;;;;;;;12.45;7.50;;;;;;;;;;4998494;28;20082;-86
2021/03/20 05:06:49;;;;;;;12.25;7.43;;;;;;;;;;4999872;28;20036;-86
2021/03/20 05:09:34;;;;;;;13.57;7.35;;;;;;;;;;4996863;28;20091;-84
2021/03/20 05:12:23;;;;;;;12.77;7.45;;;;;;;;;;5011689;28;20483;-85
2021/03/20 05:15:18;;;;;;;14.85;8.35;;;;;;;;;;4988177;28;20030;-86
2021/03/20 05:18:03;;;;;;;14.75;7.70;;;;;;;;;;5017282;28;20029;-85
2021/03/20 05:20:48;;;;;;;14.00;8.35;;;;;;;;;;5005753;28;20057;-86
2021/03/20 05:23:33;;;;;;;12.68;6.88;;;;;;;;;;4991910;28;20655;-87
2021/03/20 05:26:19;;;;;;;10.63;7.45;;;;;;;;;;4981782;28;20435;-86
2021/03/20 05:29:04;;;;;;;12.50;7.55;;;;;;;;;;5008271;28;20026;-89
2021/03/20 05:31:50;;;;;;;12.30;7.82;;;;;;;;;;5001927;28;20029;-87
2021/03/20 05:34:36;;;;;;;11.80;8.07;;;;;;;;;;4980211;28;20038;-87
2021/03/20 05:37:32;;;;;;;12.88;7.32;;;;;;;;;;5001238;28;20513;-85
2021/03/20 05:40:38;;;;;;;14.13;8.95;;;;;;;;;;4999476;28;20018;-87
2021/03/20 05:43:29;;;;;;;11.48;6.75;;;;;;;;;;4995958;28;20046;-87
2021/03/20 05:46:44;;;;;;;11.60;7.90;;;;;;;;;;4995242;28;20071;-86
2021/03/20 05:49:50;;;;;;;10.75;7.05;;;;;;;;;;4997670;28;20038;-86
2021/03/20 05:52:39;;;;;;;14.43;7.72;;;;;;;;;;5017249;28;20113;-85
2021/03/20 05:55:24;;;;;;;12.00;7.72;;;;;;;;;;5003187;28;20472;-84
2021/03/20 05:58:14;;;;;;;10.95;7.05;;;;;;;;;;5020646;28;20381;-85
2021/03/20 06:01:03;;;;;;;13.98;7.25;;;;;;;;;;5001816;28;21123;-84
2021/03/20 06:03:57;;;;;;;11.13;6.72;;;;;;;;;;5003818;28;20277;-85
2021/03/20 06:07:18;;;;;;;11.88;7.25;;;;;;;;;;4996879;28;20022;-85
2021/03/20 06:10:21;;;;;;;9.85;6.63;;;;;;;;;;4952333;28;20024;-85
2021/03/20 06:13:29;;;;;;;11.40;7.15;;;;;;;;;;5008643;28;20089;-84
2021/03/20 06:16:22;;;;;;;12.07;7.82;;;;;;;;;;5002045;28;20370;-86
2021/03/20 06:19:23;;;;;;;9.80;6.18;;;;;;;;;;5011350;28;20311;-86
2021/03/20 06:22:17;;;;;;;12.30;6.47;;;;;;;;;;5007497;28;20096;-84
2021/03/20 06:25:22;;;;;;;10.85;6.80;;;;;;;;;;5020236;28;20022;-84
2021/03/20 06:28:08;;;;;;;10.68;6.63;;;;;;;;;;5018425;28;20018;-84
2021/03/20 06:31:00;;;;;;;10.05;6.38;;;;;;;;;;5006871;28;20083;-85
2021/03/20 06:33:52;;;;;;;10.88;5.93;;;;;;;;;;5014047;28;20383;-85
2021/03/20 06:36:40;;;;;;;12.07;7.03;;;;;;;;;;5021098;28;20032;-85
2021/03/20 06:39:32;;;;;;;9.18;5.85;;;;;;;;;;5010942;28;20041;-83
2021/03/20 06:42:17;;;;;;;8.88;5.63;;;;;;;;;;5015913;28;20034;-86
2021/03/20 06:45:05;;;;;;;9.07;5.55;;;;;;;;;;5016393;28;20029;-85
2021/03/20 06:47:53;;;;;;;7.60;4.72;;;;;;;;;;5001444;28;20492;-86
2021/03/20 06:50:39;;;;;;;9.27;5.97;;;;;;;;;;4998491;28;20688;-87
2021/03/20 06:53:31;;;;;;;7.35;5.13;;;;;;;;;;5018380;28;20022;-87
2021/03/20 06:56:17;;;;;;;9.73;5.93;;;;;;;;;;5020950;28;20041;-84
2021/03/20 06:59:12;;;;;;;9.43;5.55;;;;;;;;;;5011111;28;20026;-86
2021/03/20 07:02:01;;;;;;;7.00;4.20;;;;;;;;;;5018135;28;20026;-85
2021/03/20 07:04:58;;;;;;;10.57;5.22;;;;;;;;;;4997304;28;20029;-85
2021/03/20 07:07:54;;;;;;;8.32;4.60;;;;;;;;;;5002863;28;20952;-84
2021/03/20 07:10:40;;;;;;;9.48;3.88;;;;;;;;;;5022038;28;20424;-86
2021/03/20 07:13:26;;;;;;;7.55;3.95;;;;;;;;;;5005246;28;20076;-85
2021/03/20 07:16:13;;;;;;;5.45;3.33;;;;;;;;;;5007684;28;20057;-84
2021/03/20 07:19:14;;;;;;;6.53;3.90;;;;;;;;;;5020123;28;20129;-86
2021/03/20 07:21:59;;;;;;;6.68;3.13;;;;;;;;;;5007216;28;20041;-85
2021/03/20 07:24:45;;;;;;;6.80;3.67;;;;;;;;;;5002588;28;20058;-84
2021/03/20 07:27:33;;;;;;;7.95;3.90;;;;;;;;;;5009555;28;20021;-83
2021/03/20 07:30:33;;;;;;;5.30;3.83;;;;;;;;;;5015294;28;20495;-84
2021/03/20 07:33:22;;;;;;;8.07;4.03;;;;;;;;;;5022058;28;20029;-86
2021/03/20 07:36:26;;;;;;;6.28;3.97;;;;;;;;;;5012802;28;20049;-84
2021/03/20 07:39:11;;;;;;;7.55;4.20;;;;;;;;;;5019175;28;20022;-84
2021/03/20 07:42:00;;;;;;;6.55;3.88;;;;;;;;;;5010071;28;20125;-84
2021/03/20 07:44:52;;;;;;;6.10;4.38;;;;;;;;;;5018921;28;20021;-86
2021/03/20 07:47:40;;;;;;;12.80;8.10;;;;;;;;;;5003057;28;20034;-86
2021/03/20 07:50:29;;;;;;;6.45;4.28;;;;;;;;;;5005555;28;20030;-85
2021/03/20 07:53:16;;;;;;;6.60;3.30;;;;;;;;;;5007120;28;20065;-83
2021/03/20 07:56:04;;;;;;;4.93;3.63;;;;;;;;;;4998750;28;20103;-84
2021/03/20 07:58:50;;;;;;;6.35;4.00;;;;;;;;;;4998493;28;20021;-83
2021/03/20 08:01:36;;;;;;;5.25;3.22;;;;;;;;;;5016375;28;20606;-85
2021/03/20 08:04:40;;;;;;;7.28;4.53;;;;;;;;;;5003096;28;20022;-84
2021/03/20 08:07:35;;;;;;;6.47;3.80;;;;;;;;;;4999971;28;20026;-87
2021/03/20 08:10:26;;;;;;;5.85;3.55;;;;;;;;;;5004273;28;20416;-84
2021/03/20 08:13:14;;;;;;;7.22;3.25;;;;;;;;;;5001424;28;20050;-84
2021/03/20 08:15:59;;;;;;;17.73;11.88;;;;;;;;;;5016291;28;20033;-87
2021/03/20 08:18:46;;;;;;;8.20;4.28;;;;;;;;;;5008132;28;20057;-89
2021/03/20 08:21:39;;;;;;;5.28;3.35;;;;;;;;;;4996573;28;20081;-87
2021/03/20 08:24:42;;;;;;;5.03;3.45;;;;;;;;;;5010931;28;20473;-86
2021/03/20 08:27:51;;;;;;;6.00;3.30;;;;;;;;;;5006253;28;20079;-85
2021/03/20 08:30:39;;;;;;;8.10;3.47;;;;;;;;;;5004215;28;20137;-85
2021/03/20 08:33:31;;;;;;;7.45;3.30;;;;;;;;;;5021251;28;20026;-87
2021/03/20 08:36:19;;;;;;;7.00;3.42;;;;;;;;;;5003400;28;20261;-86
2021/03/20 08:39:24;;;;;;;7.82;2.75;;;;;;;;;;5016005;28;20040;-85
2021/03/20 08:42:18;;;;;;;6.28;3.53;;;;;;;;;;5013137;28;20025;-87
2021/03/20 08:45:22;;;;;;;6.55;4.00;;;;;;;;;;4994514;28;20018;-89
2021/03/20 08:48:17;;;;;;;5.68;2.95;;;;;;;;;;5003613;28;20049;-88
2021/03/20 08:51:02;;;;;;;5.32;2.65;;;;;;;;;;5006884;28;20022;-89
2021/03/20 08:53:53;;;;;;;17.63;12.00;;;;;;;;;;5003501;28;20113;-87
2021/03/20 08:56:38;;;;;;;6.93;2.80;;;;;;;;;;5006222;28;20053;-87
2021/03/20 08:59:28;;;;;;;5.15;2.50;;;;;;;;;;5007399;28;20109;-87
2021/03/20 09:02:29;;;;;;;5.82;2.33;;;;;;;;;;5018174;28;20141;-88
2021/03/20 09:05:17;;;;;;;10.82;2.55;;;;;;;;;;5015000;28;20661;-87
2021/03/20 09:08:16;;;;;;;3.63;2.47;;;;;;;;;;5001791;28;20080;-88
2021/03/20 09:11:18;;;;;;;3.53;1.92;;;;;;;;;;5005801;28;20018;-87
2021/03/20 09:14:09;;;;;;;4.35;2.70;;;;;;;;;;5014553;28;20459;-86
2021/03/20 09:17:00;;;;;;;10.93;7.53;;;;;;;;;;5003780;28;20025;-87
2021/03/20 09:20:09;;;;;;;5.63;3.47;;;;;;;;;;4995811;28;20491;-86
2021/03/20 09:22:54;;;;;;;4.68;2.85;;;;;;;;;;4959233;28;20029;-85
2021/03/20 09:25:41;;;;;;;4.28;2.33;;;;;;;;;;5006656;28;20030;-85
2021/03/20 09:28:29;;;;;;;4.85;2.90;;;;;;;;;;5002065;28;20052;-88
2021/03/20 09:31:31;;;;;;;4.88;3.15;;;;;;;;;;5006304;28;20497;-85
2021/03/20 09:34:26;;;;;;;4.57;2.75;;;;;;;;;;4998877;28;20018;-85
2021/03/20 09:37:17;;;;;;;4.88;2.65;;;;;;;;;;5005349;28;20101;-84
2021/03/20 09:40:03;;;;;;;5.88;3.00;;;;;;;;;;5005510;28;20397;-85
2021/03/20 09:42:48;;;;;;;9.07;3.42;;;;;;;;;;5018147;28;20026;-85
2021/03/20 09:45:33;;;;;;;7.45;3.47;;;;;;;;;;5017126;28;20088;-84
2021/03/20 09:48:37;;;;;;;4.65;2.83;;;;;;;;;;5004447;28;20109;-84
2021/03/20 09:51:41;;;;;;;3.83;2.72;;;;;;;;;;5017204;28;20239;-85
2021/03/20 09:54:28;;;;;;;3.25;2.95;;;;;;;;;;5009108;28;20029;-85
2021/03/20 10:00:03;;;;;;;4.22;2.60;;;;;;;;;;5008005;28;20488;-85
2021/03/20 10:02:52;;;;;;;2.63;2.42;;;;;;;;;;5008915;28;20493;-83
2021/03/20 10:05:37;;;;;;;4.85;3.28;;;;;;;;;;5000287;28;20022;-84
2021/03/20 10:08:37;;;;;;;4.90;3.53;;;;;;;;;;5009534;28;20026;-86
2021/03/20 10:11:31;;;;;;;3.85;2.50;;;;;;;;;;5020688;28;20057;-84
2021/03/20 10:14:27;;;;;;;3.78;2.60;;;;;;;;;;5016577;28;20084;-85
2021/03/20 10:17:17;;;;;;;3.10;2.80;;;;;;;;;;5019821;28;20026;-84
2021/03/20 10:20:11;;;;;;;4.50;2.75;;;;;;;;;;5001433;28;20076;-84
2021/03/20 10:23:02;;;;;;;3.03;2.75;;;;;;;;;;5008076;28;20101;-85
2021/03/20 10:25:53;;;;;;;4.82;2.90;;;;;;;;;;5004896;28;20025;-85
2021/03/20 10:28:41;;;;;;;3.65;2.83;;;;;;;;;;5009234;28;20054;-84
2021/03/20 10:31:27;;;;;;;5.03;3.17;;;;;;;;;;5016037;28;20060;-87
2021/03/20 10:34:14;;;;;;;3.45;2.80;;;;;;;;;;5024367;28;20126;-85
2021/03/20 10:37:10;;;;;;;3.22;2.92;;;;;;;;;;5015285;28;20018;-87
2021/03/20 10:40:04;;;;;;;3.13;2.83;;;;;;;;;;4990844;28;20069;-86
2021/03/20 10:42:52;;;;;;;4.55;3.20;;;;;;;;;;5008901;28;20057;-85
2021/03/20 10:45:38;;;;;;;3.45;2.80;;;;;;;;;;4999460;28;20548;-87
2021/03/20 10:48:27;;;;;;;3.85;3.05;;;;;;;;;;5008248;28;20018;-88
2021/03/20 10:51:14;;;;;;;3.00;2.47;;;;;;;;;;5006897;28;20029;-84
2021/03/20 10:54:06;;;;;;;6.18;3.15;;;;;;;;;;5009775;28;20092;-90
2021/03/20 10:56:54;;;;;;;5.82;2.58;;;;;;;;;;5020046;28;20121;-87
2021/03/20 10:59:40;;;;;;;7.75;3.10;;;;;;;;;;5023081;28;20625;-83
2021/03/20 11:02:25;;;;;;;4.18;2.75;;;;;;;;;;4996666;28;20269;-82
2021/03/20 11:05:19;;;;;;;4.22;2.88;;;;;;;;;;5000395;28;20037;-86
2021/03/20 11:08:13;;;;;;;4.72;3.15;;;;;;;;;;5000912;28;20026;-86
2021/03/20 11:11:17;;;;;;;5.72;2.80;;;;;;;;;;5017533;28;20060;-88
2021/03/20 11:14:03;;;;;;;3.83;2.72;;;;;;;;;;5019003;28;20065;-88
2021/03/20 11:16:55;;;;;;;5.65;2.90;;;;;;;;;;5021233;28;20377;-89
2021/03/20 11:19:40;;;;;;;4.55;3.13;;;;;;;;;;4996157;28;20682;-89
2021/03/20 11:22:33;;;;;;;3.95;2.60;;;;;;;;;;5031140;28;20040;-86
2021/03/20 11:25:31;;;;;;;5.28;3.05;;;;;;;;;;5024449;28;20022;-88
2021/03/20 11:28:30;;;;;;;10.82;5.72;;;;;;;;;;5002405;28;20045;-88
2021/03/20 11:31:20;;;;;;;3.65;2.80;;;;;;;;;;5013221;28;20045;-86
2021/03/20 11:34:06;;;;;;;6.50;3.22;;;;;;;;;;4997582;28;20751;-86
2021/03/20 11:36:53;;;;;;;5.80;2.85;;;;;;;;;;5021753;28;20017;-89
2021/03/20 11:39:38;;;;;;;4.10;2.70;;;;;;;;;;5005826;28;20513;-86
2021/03/20 11:42:36;;;;;;;4.38;2.92;;;;;;;;;;4998037;28;20026;-89
2021/03/20 11:45:32;;;;;;;4.70;2.33;;;;;;;;;;5016014;28;20049;-88
2021/03/20 11:48:21;;;;;;;4.97;2.58;;;;;;;;;;5002830;28;20033;-88
2021/03/20 11:51:11;;;;;;;5.15;2.85;;;;;;;;;;5002420;28;20030;-88
2021/03/20 11:54:01;;;;;;;3.80;2.65;;;;;;;;;;5004739;28;20032;-88
2021/03/20 11:56:55;;;;;;;6.00;3.10;;;;;;;;;;5015595;28;20022;-87
2021/03/20 11:59:42;;;;;;;4.85;2.40;;;;;;;;;;5004256;28;20822;-88
2021/03/20 12:02:27;;;;;;;16.50;10.55;;;;;;;;;;4995691;28;20036;-88
2021/03/20 12:05:13;;;;;;;5.28;3.60;;;;;;;;;;5007204;28;20406;-87
2021/03/20 12:08:34;;;;;;;4.75;2.50;;;;;;;;;;5006119;28;20774;-88
2021/03/20 12:11:39;;;;;;;5.38;3.30;;;;;;;;;;4988406;28;20034;-88
2021/03/20 12:14:41;;;;;;;5.38;2.90;;;;;;;;;;5010773;28;20049;-88
2021/03/20 12:17:27;;;;;;;3.40;2.33;;;;;;;;;;5008109;28;20061;-87
2021/03/20 12:20:27;;;;;;;7.50;4.68;;;;;;;;;;5004180;28;20100;-87
2021/03/20 12:23:12;;;;;;;6.07;2.85;;;;;;;;;;4999340;28;20017;-87
2021/03/20 12:25:58;;;;;;;5.78;3.10;;;;;;;;;;4985259;28;20021;-88
2021/03/20 12:28:45;;;;;;;4.95;3.00;;;;;;;;;;5002764;28;20098;-88
2021/03/20 12:31:30;;;;;;;7.07;3.25;;;;;;;;;;5004015;28;20033;-87
2021/03/20 12:34:15;;;;;;;5.70;3.03;;;;;;;;;;4991793;28;20026;-89
2021/03/20 12:37:21;;;;;;;4.40;2.58;;;;;;;;;;5016990;28;20091;-86
2021/03/20 12:40:06;;;;;;;5.60;2.90;;;;;;;;;;5000678;28;20078;-86
2021/03/20 12:42:52;;;;;;;4.78;3.08;;;;;;;;;;5002760;28;20028;-86
2021/03/20 12:45:39;;;;;;;5.13;3.05;;;;;;;;;;4999844;28;20449;-81
2021/03/20 12:48:24;;;;;;;4.75;2.88;;;;;;;;;;5001677;28;20057;-83
2021/03/20 12:51:21;;;;;;;4.70;2.95;;;;;;;;;;5017397;28;20338;-81
2021/03/20 12:54:06;;;;;;;30.83;20.42;;;;;;;;;;5013531;28;20029;-80
2021/03/20 12:56:52;;;;;;;6.38;3.45;;;;;;;;;;5003255;28;20412;-80
2021/03/20 12:59:37;;;;;;;6.88;2.97;;;;;;;;;;4997313;28;20041;-81
2021/03/20 13:02:22;;;;;;;5.18;3.63;;;;;;;;;;4998767;28;20037;-81
2021/03/20 13:05:09;;;;;;;4.50;2.90;;;;;;;;;;4990745;28;20507;-81
2021/03/20 13:07:55;;;;;;;5.70;3.00;;;;;;;;;;5009642;28;20045;-86
2021/03/20 13:10:40;;;;;;;5.07;3.33;;;;;;;;;;5018485;28;20025;-85
2021/03/20 13:13:25;;;;;;;5.05;2.92;;;;;;;;;;5001147;28;20065;-82
2021/03/20 13:16:11;;;;;;;5.15;3.20;;;;;;;;;;5021039;28;20022;-83
2021/03/20 13:18:56;;;;;;;4.68;2.90;;;;;;;;;;5000629;28;20571;-82
2021/03/20 13:21:41;;;;;;;6.32;2.90;;;;;;;;;;5003940;28;20038;-83
2021/03/20 13:24:26;;;;;;;5.10;2.78;;;;;;;;;;5023212;28;20521;-82
2021/03/20 13:27:12;;;;;;;6.38;3.40;;;;;;;;;;5019030;28;20022;-82
2021/03/20 13:29:59;;;;;;;7.75;3.38;;;;;;;;;;5016033;28;20781;-81
2021/03/20 13:32:45;;;;;;;5.15;3.13;;;;;;;;;;4997498;28;20030;-82
2021/03/20 13:35:32;;;;;;;7.03;3.67;;;;;;;;;;5014168;28;20041;-83
2021/03/20 13:38:17;;;;;;;6.55;3.97;;;;;;;;;;5015876;28;20076;-84
2021/03/20 13:41:03;;;;;;;7.60;3.17;;;;;;;;;;5006172;28;20072;-83
2021/03/20 13:43:49;;;;;;;5.65;3.40;;;;;;;;;;5015427;28;20435;-83
2021/03/20 13:46:36;;;;;;;5.72;3.30;;;;;;;;;;5005551;28;20073;-84
2021/03/20 13:49:21;;;;;;;5.90;3.30;;;;;;;;;;5001737;28;20172;-84
2021/03/20 13:52:06;;;;;;;5.85;3.17;;;;;;;;;;5022751;28;20523;-85
2021/03/20 13:54:52;;;;;;;6.70;3.83;;;;;;;;;;5015777;28;20483;-86
2021/03/20 13:57:38;;;;;;;4.65;2.75;;;;;;;;;;5007464;28;20030;-84
2021/03/20 14:00:23;;;;;;;5.75;3.20;;;;;;;;;;4998766;28;20115;-83
2021/03/20 14:03:09;;;;;;;4.70;3.28;;;;;;;;;;5001749;28;20484;-87
2021/03/20 14:05:54;;;;;;;10.18;3.10;;;;;;;;;;5015496;28;20030;-83
2021/03/20 14:08:40;;;;;;;4.95;3.10;;;;;;;;;;4991962;28;20510;-83
2021/03/20 14:11:25;;;;;;;8.95;3.60;;;;;;;;;;5007923;28;20038;-82
2021/03/20 14:14:10;;;;;;;4.70;2.70;;;;;;;;;;4999417;28;20103;-83
2021/03/20 14:16:55;;;;;;;5.63;3.85;;;;;;;;;;5000736;28;20112;-83
2021/03/20 14:19:41;;;;;;;4.93;2.95;;;;;;;;;;5001997;28;20025;-85
2021/03/20 14:22:26;;;;;;;4.70;2.97;;;;;;;;;;5002222;28;20064;-86
2021/03/20 14:25:11;;;;;;;11.15;5.07;;;;;;;;;;5000839;28;20491;-86
2021/03/20 14:27:57;;;;;;;5.05;2.75;;;;;;;;;;5005496;28;20091;-85
2021/03/20 14:30:47;;;;;;;4.05;2.80;;;;;;;;;;5000535;28;20018;-82
2021/03/20 14:33:33;;;;;;;6.30;3.30;;;;;;;;;;5010458;28;20029;-83
2021/03/20 14:36:18;;;;;;;5.68;3.13;;;;;;;;;;5001213;28;20093;-84
2021/03/20 14:39:03;;;;;;;4.38;2.80;;;;;;;;;;5018001;28;20064;-86
2021/03/20 14:41:49;;;;;;;4.82;2.92;;;;;;;;;;4996526;28;20029;-84
2021/03/20 14:44:34;;;;;;;4.40;2.75;;;;;;;;;;5011364;28;20066;-85
2021/03/20 14:47:19;;;;;;;4.65;2.60;;;;;;;;;;5016829;28;20025;-84
2021/03/20 15:00:29;;;;;;;5.80;2.72;;;;;;;;;;5021601;28;20044;-85
2021/03/20 15:03:45;;;;;;;4.88;2.92;;;;;;;;;;5005055;28;20298;-86
2021/03/20 15:06:59;;;;;;;4.03;2.50;;;;;;;;;;5007270;28;20037;-86
2021/03/20 15:09:44;;;;;;;5.93;2.90;;;;;;;;;;5011638;28;20036;-84
2021/03/20 15:12:29;;;;;;;3.55;2.55;;;;;;;;;;5007606;28;20022;-85
2021/03/20 15:15:15;;;;;;;5.82;2.60;;;;;;;;;;5007094;28;20042;-85
2021/03/20 15:18:01;;;;;;;3.90;2.35;;;;;;;;;;5008143;28;20627;-88
2021/03/20 15:20:47;;;;;;;4.30;2.60;;;;;;;;;;4992336;28;20037;-87
2021/03/20 15:23:33;;;;;;;3.92;2.33;;;;;;;;;;5006211;28;20515;-86
2021/03/20 15:26:20;;;;;;;5.72;2.95;;;;;;;;;;5022715;28;20026;-85
2021/03/20 15:29:05;;;;;;;5.20;2.63;;;;;;;;;;5006187;28;20451;-87
2021/03/20 15:31:50;;;;;;;3.95;2.40;;;;;;;;;;5002696;28;20492;-87
2021/03/20 15:34:37;;;;;;;4.93;2.70;;;;;;;;;;4994042;28;20393;-86
2021/03/20 15:37:22;;;;;;;5.43;2.92;;;;;;;;;;5019614;28;20502;-85
2021/03/20 15:40:08;;;;;;;5.20;2.63;;;;;;;;;;5002994;28;20026;-85
2021/03/20 15:42:53;;;;;;;6.97;3.20;;;;;;;;;;5019034;28;20026;-85
2021/03/20 15:45:39;;;;;;;6.30;2.60;;;;;;;;;;5006478;28;20392;-85
2021/03/20 15:48:25;;;;;;;6.45;2.55;;;;;;;;;;5005052;28;20022;-84
2021/03/20 15:51:12;;;;;;;6.85;2.47;;;;;;;;;;5007733;28;20033;-85
2021/03/20 15:53:57;;;;;;;5.10;2.72;;;;;;;;;;5005401;28;20037;-85
2021/03/20 15:56:42;;;;;;;6.07;2.83;;;;;;;;;;5007520;28;20030;-84
2021/03/20 15:59:28;;;;;;;5.15;2.33;;;;;;;;;;5018562;28;20050;-87
2021/03/20 16:02:13;;;;;;;4.63;2.80;;;;;;;;;;5008838;28;20025;-86
2021/03/20 16:04:58;;;;;;;4.07;2.28;;;;;;;;;;5004527;28;20122;-86
2021/03/20 16:07:47;;;;;;;3.45;2.30;;;;;;;;;;5008679;28;20288;-88
2021/03/20 16:10:41;;;;;;;5.53;2.45;;;;;;;;;;5004812;28;20450;-83
2021/03/20 16:13:28;;;;;;;4.43;2.55;;;;;;;;;;4992983;28;20042;-85
2021/03/20 16:16:15;;;;;;;5.15;2.90;;;;;;;;;;5005989;28;20072;-81
2021/03/20 16:19:01;;;;;;;6.63;2.63;;;;;;;;;;5016349;28;20060;-78
2021/03/20 16:21:46;;;;;;;6.68;3.05;;;;;;;;;;5005845;28;20046;-82
2021/03/20 16:24:32;;;;;;;6.50;3.58;;;;;;;;;;5013100;28;20033;-81
2021/03/20 16:27:17;;;;;;;8.70;2.88;;;;;;;;;;5003226;28;20030;-82
2021/03/20 16:30:03;;;;;;;3.75;2.28;;;;;;;;;;5005502;28;20202;-80
2021/03/20 16:32:50;;;;;;;4.20;2.03;;;;;;;;;;5017193;28;20550;-84
2021/03/20 16:35:35;;;;;;;5.80;2.60;;;;;;;;;;5001392;28;20447;-84
2021/03/20 16:38:22;;;;;;;4.50;2.55;;;;;;;;;;5005750;28;20022;-84
2021/03/20 16:41:09;;;;;;;7.07;2.75;;;;;;;;;;5005775;28;20539;-83
2021/03/20 16:43:54;;;;;;;5.70;2.63;;;;;;;;;;5003695;28;20475;-83
2021/03/20 16:46:39;;;;;;;4.60;2.40;;;;;;;;;;5006634;28;20121;-84
2021/03/20 16:49:24;;;;;;;3.28;2.00;;;;;;;;;;5003672;28;20034;-81
2021/03/20 16:52:10;;;;;;;6.93;2.95;;;;;;;;;;5017030;28;20033;-81
2021/03/20 16:54:55;;;;;;;5.35;2.53;;;;;;;;;;5017121;28;20036;-85
2021/03/20 16:57:41;;;;;;;5.55;2.65;;;;;;;;;;4993251;28;20029;-82
2021/03/20 17:00:29;;;;;;;4.18;2.83;;;;;;;;;;5010652;28;20030;-81
2021/03/20 17:03:15;;;;;;;7.32;2.95;;;;;;;;;;5006212;28;20549;-81
2021/03/20 17:06:00;;;;;;;7.88;3.00;;;;;;;;;;5010075;28;20026;-82